sensor_id;sensor_type;location;lat;lon;timestamp;P1;durP1;ratioP1;P2;durP2;ratioP2
59300;SDS011;45073;52.740;6.784;2023-09-08T00:02:00;12.57;;;7.20;;
59300;SDS011;45073;52.740;6.784;2023-09-08T00:04:25;10.35;;;7.45;;
59300;SDS011;45073;52.740;6.784;2023-09-08T00:06:51;11.45;;;7.55;;
59300;SDS011;45073;52.740;6.784;2023-09-08T00:09:17;9.77;;;7.43;;
59300;SDS011;45073;52.740;6.784;2023-09-08T00:11:42;10.35;;;7.20;;
59300;SDS011;45073;52.740;6.784;2023-09-08T00:14:08;11.05;;;8.23;;
59300;SDS011;45073;52.740;6.784;2023-09-08T00:16:33;10.93;;;6.97;;
59300;SDS011;45073;52.740;6.784;2023-09-08T00:18:59;10.73;;;7.53;;
59300;SDS011;45073;52.740;6.784;2023-09-08T00:21:25;12.73;;;7.40;;
59300;SDS011;45073;52.740;6.784;2023-09-08T00:23:51;11.90;;;7.70;;
59300;SDS011;45073;52.740;6.784;2023-09-08T00:26:17;10.73;;;7.13;;
59300;SDS011;45073;52.740;6.784;2023-09-08T00:28:43;11.63;;;8.15;;
59300;SDS011;45073;52.740;6.784;2023-09-08T00:31:09;11.93;;;7.72;;
59300;SDS011;45073;52.740;6.784;2023-09-08T00:33:34;11.20;;;7.70;;
59300;SDS011;45073;52.740;6.784;2023-09-08T00:36:00;12.65;;;8.05;;
59300;SDS011;45073;52.740;6.784;2023-09-08T00:38:26;10.45;;;7.75;;
59300;SDS011;45073;52.740;6.784;2023-09-08T00:40:51;11.55;;;7.60;;
59300;SDS011;45073;52.740;6.784;2023-09-08T00:43:17;11.65;;;7.80;;
59300;SDS011;45073;52.740;6.784;2023-09-08T00:45:43;10.18;;;7.60;;
59300;SDS011;45073;52.740;6.784;2023-09-08T00:48:10;11.27;;;7.22;;
59300;SDS011;45073;52.740;6.784;2023-09-08T00:50:36;11.13;;;8.38;;
59300;SDS011;45073;52.740;6.784;2023-09-08T00:53:03;11.02;;;7.93;;
59300;SDS011;45073;52.740;6.784;2023-09-08T00:55:30;10.40;;;7.60;;
59300;SDS011;45073;52.740;6.784;2023-09-08T00:57:56;10.63;;;7.50;;
59300;SDS011;45073;52.740;6.784;2023-09-08T01:00:23;11.30;;;7.28;;
59300;SDS011;45073;52.740;6.784;2023-09-08T01:02:49;12.35;;;8.02;;
59300;SDS011;45073;52.740;6.784;2023-09-08T01:05:15;11.55;;;8.25;;
59300;SDS011;45073;52.740;6.784;2023-09-08T01:07:41;10.50;;;7.97;;
59300;SDS011;45073;52.740;6.784;2023-09-08T01:10:07;10.00;;;7.57;;
59300;SDS011;45073;52.740;6.784;2023-09-08T01:12:34;11.60;;;7.88;;
59300;SDS011;45073;52.740;6.784;2023-09-08T01:15:00;13.05;;;8.23;;
59300;SDS011;45073;52.740;6.784;2023-09-08T01:17:26;12.10;;;8.38;;
59300;SDS011;45073;52.740;6.784;2023-09-08T01:19:53;11.30;;;8.45;;
59300;SDS011;45073;52.740;6.784;2023-09-08T01:22:38;11.07;;;8.15;;
59300;SDS011;45073;52.740;6.784;2023-09-08T01:25:28;12.57;;;9.27;;
59300;SDS011;45073;52.740;6.784;2023-09-08T01:27:55;11.43;;;8.48;;
59300;SDS011;45073;52.740;6.784;2023-09-08T01:30:24;12.75;;;8.95;;
59300;SDS011;45073;52.740;6.784;2023-09-08T01:32:52;12.38;;;8.13;;
59300;SDS011;45073;52.740;6.784;2023-09-08T01:35:19;15.10;;;9.15;;
59300;SDS011;45073;52.740;6.784;2023-09-08T01:37:45;11.55;;;8.75;;
59300;SDS011;45073;52.740;6.784;2023-09-08T01:40:12;11.93;;;8.82;;
59300;SDS011;45073;52.740;6.784;2023-09-08T01:42:38;13.95;;;9.20;;
59300;SDS011;45073;52.740;6.784;2023-09-08T01:45:04;11.90;;;8.70;;
59300;SDS011;45073;52.740;6.784;2023-09-08T01:47:30;12.35;;;8.80;;
59300;SDS011;45073;52.740;6.784;2023-09-08T01:49:56;13.43;;;8.98;;
59300;SDS011;45073;52.740;6.784;2023-09-08T01:52:21;12.63;;;9.55;;
59300;SDS011;45073;52.740;6.784;2023-09-08T01:54:47;12.25;;;9.13;;
59300;SDS011;45073;52.740;6.784;2023-09-08T01:57:13;12.10;;;8.90;;
59300;SDS011;45073;52.740;6.784;2023-09-08T01:59:39;11.23;;;8.75;;
59300;SDS011;45073;52.740;6.784;2023-09-08T02:02:05;10.80;;;8.55;;
59300;SDS011;45073;52.740;6.784;2023-09-08T02:04:31;11.10;;;8.68;;
59300;SDS011;45073;52.740;6.784;2023-09-08T02:06:56;11.23;;;8.32;;
59300;SDS011;45073;52.740;6.784;2023-09-08T02:09:29;11.90;;;8.50;;
59300;SDS011;45073;52.740;6.784;2023-09-08T02:12:01;13.77;;;8.88;;
59300;SDS011;45073;52.740;6.784;2023-09-08T02:14:28;12.02;;;8.93;;
59300;SDS011;45073;52.740;6.784;2023-09-08T02:16:54;13.18;;;9.35;;
59300;SDS011;45073;52.740;6.784;2023-09-08T02:19:20;12.20;;;8.98;;
59300;SDS011;45073;52.740;6.784;2023-09-08T02:21:46;12.73;;;9.75;;
59300;SDS011;45073;52.740;6.784;2023-09-08T02:24:11;11.80;;;8.77;;
59300;SDS011;45073;52.740;6.784;2023-09-08T02:26:40;11.18;;;9.25;;
59300;SDS011;45073;52.740;6.784;2023-09-08T02:29:06;13.00;;;9.23;;
59300;SDS011;45073;52.740;6.784;2023-09-08T02:31:32;12.80;;;9.60;;
59300;SDS011;45073;52.740;6.784;2023-09-08T02:33:58;13.48;;;10.50;;
59300;SDS011;45073;52.740;6.784;2023-09-08T02:36:24;12.05;;;9.27;;
59300;SDS011;45073;52.740;6.784;2023-09-08T02:38:53;11.95;;;9.70;;
59300;SDS011;45073;52.740;6.784;2023-09-08T02:41:19;14.27;;;9.65;;
59300;SDS011;45073;52.740;6.784;2023-09-08T02:43:45;11.73;;;9.95;;
59300;SDS011;45073;52.740;6.784;2023-09-08T02:46:11;12.15;;;9.32;;
59300;SDS011;45073;52.740;6.784;2023-09-08T02:48:36;12.43;;;9.77;;
59300;SDS011;45073;52.740;6.784;2023-09-08T02:51:02;12.52;;;9.63;;
59300;SDS011;45073;52.740;6.784;2023-09-08T02:53:28;13.65;;;9.60;;
59300;SDS011;45073;52.740;6.784;2023-09-08T02:55:54;16.58;;;9.65;;
59300;SDS011;45073;52.740;6.784;2023-09-08T02:58:20;10.98;;;8.90;;
59300;SDS011;45073;52.740;6.784;2023-09-08T03:00:46;13.15;;;10.30;;
59300;SDS011;45073;52.740;6.784;2023-09-08T03:03:12;14.10;;;10.75;;
59300;SDS011;45073;52.740;6.784;2023-09-08T03:05:38;12.80;;;10.27;;
59300;SDS011;45073;52.740;6.784;2023-09-08T03:08:03;11.68;;;6.75;;
59300;SDS011;45073;52.740;6.784;2023-09-08T03:10:30;11.38;;;9.90;;
59300;SDS011;45073;52.740;6.784;2023-09-08T03:12:59;11.15;;;9.38;;
59300;SDS011;45073;52.740;6.784;2023-09-08T03:15:25;12.15;;;9.85;;
59300;SDS011;45073;52.740;6.784;2023-09-08T03:17:53;13.00;;;9.52;;
59300;SDS011;45073;52.740;6.784;2023-09-08T03:20:19;11.90;;;9.90;;
59300;SDS011;45073;52.740;6.784;2023-09-08T03:22:45;11.93;;;9.63;;
59300;SDS011;45073;52.740;6.784;2023-09-08T03:25:11;13.15;;;10.43;;
59300;SDS011;45073;52.740;6.784;2023-09-08T03:27:39;12.93;;;10.38;;
59300;SDS011;45073;52.740;6.784;2023-09-08T03:30:05;13.60;;;10.18;;
59300;SDS011;45073;52.740;6.784;2023-09-08T03:32:31;15.55;;;10.25;;
59300;SDS011;45073;52.740;6.784;2023-09-08T03:34:57;12.75;;;10.30;;
59300;SDS011;45073;52.740;6.784;2023-09-08T03:37:22;13.85;;;10.57;;
59300;SDS011;45073;52.740;6.784;2023-09-08T03:39:48;15.13;;;10.63;;
59300;SDS011;45073;52.740;6.784;2023-09-08T03:42:14;13.10;;;10.57;;
59300;SDS011;45073;52.740;6.784;2023-09-08T03:44:40;11.98;;;10.48;;
59300;SDS011;45073;52.740;6.784;2023-09-08T03:47:05;11.27;;;10.07;;
59300;SDS011;45073;52.740;6.784;2023-09-08T03:49:31;11.98;;;10.73;;
59300;SDS011;45073;52.740;6.784;2023-09-08T03:51:58;13.95;;;10.80;;
59300;SDS011;45073;52.740;6.784;2023-09-08T03:54:23;15.52;;;10.70;;
59300;SDS011;45073;52.740;6.784;2023-09-08T03:56:49;13.45;;;10.73;;
59300;SDS011;45073;52.740;6.784;2023-09-08T03:59:14;13.65;;;10.95;;
59300;SDS011;45073;52.740;6.784;2023-09-08T04:01:40;12.23;;;10.00;;
59300;SDS011;45073;52.740;6.784;2023-09-08T04:04:06;12.85;;;8.05;;
59300;SDS011;45073;52.740;6.784;2023-09-08T04:06:31;13.77;;;11.05;;
59300;SDS011;45073;52.740;6.784;2023-09-08T04:08:57;13.60;;;11.25;;
59300;SDS011;45073;52.740;6.784;2023-09-08T04:11:22;14.20;;;10.93;;
59300;SDS011;45073;52.740;6.784;2023-09-08T04:13:48;13.50;;;11.25;;
59300;SDS011;45073;52.740;6.784;2023-09-08T04:16:13;13.15;;;7.68;;
59300;SDS011;45073;52.740;6.784;2023-09-08T04:18:39;15.10;;;10.90;;
59300;SDS011;45073;52.740;6.784;2023-09-08T04:21:06;14.38;;;12.20;;
59300;SDS011;45073;52.740;6.784;2023-09-08T04:23:32;13.95;;;8.68;;
59300;SDS011;45073;52.740;6.784;2023-09-08T04:25:58;12.65;;;11.00;;
59300;SDS011;45073;52.740;6.784;2023-09-08T04:28:24;14.20;;;12.70;;
59300;SDS011;45073;52.740;6.784;2023-09-08T04:30:49;13.68;;;11.48;;
59300;SDS011;45073;52.740;6.784;2023-09-08T04:33:15;13.30;;;11.55;;
59300;SDS011;45073;52.740;6.784;2023-09-08T04:35:40;13.90;;;11.35;;
59300;SDS011;45073;52.740;6.784;2023-09-08T04:38:06;17.00;;;12.27;;
59300;SDS011;45073;52.740;6.784;2023-09-08T04:40:32;13.60;;;11.52;;
59300;SDS011;45073;52.740;6.784;2023-09-08T04:42:58;15.63;;;12.30;;
59300;SDS011;45073;52.740;6.784;2023-09-08T04:45:24;16.70;;;12.18;;
59300;SDS011;45073;52.740;6.784;2023-09-08T04:47:49;13.95;;;12.32;;
59300;SDS011;45073;52.740;6.784;2023-09-08T04:50:15;13.90;;;11.05;;
59300;SDS011;45073;52.740;6.784;2023-09-08T04:52:41;16.23;;;12.48;;
59300;SDS011;45073;52.740;6.784;2023-09-08T04:55:07;14.52;;;7.80;;
59300;SDS011;45073;52.740;6.784;2023-09-08T04:57:32;14.88;;;12.57;;
59300;SDS011;45073;52.740;6.784;2023-09-08T04:59:58;13.30;;;11.60;;
59300;SDS011;45073;52.740;6.784;2023-09-08T05:02:24;15.82;;;13.30;;
59300;SDS011;45073;52.740;6.784;2023-09-08T05:04:49;15.93;;;12.57;;
59300;SDS011;45073;52.740;6.784;2023-09-08T05:07:15;14.68;;;12.70;;
59300;SDS011;45073;52.740;6.784;2023-09-08T05:09:41;14.38;;;12.10;;
59300;SDS011;45073;52.740;6.784;2023-09-08T05:12:06;16.77;;;12.77;;
59300;SDS011;45073;52.740;6.784;2023-09-08T05:14:32;13.80;;;12.30;;
59300;SDS011;45073;52.740;6.784;2023-09-08T05:16:58;15.20;;;13.60;;
59300;SDS011;45073;52.740;6.784;2023-09-08T05:19:23;15.52;;;13.50;;
59300;SDS011;45073;52.740;6.784;2023-09-08T05:21:53;15.38;;;13.23;;
59300;SDS011;45073;52.740;6.784;2023-09-08T05:24:19;15.38;;;8.88;;
59300;SDS011;45073;52.740;6.784;2023-09-08T05:26:45;13.77;;;12.38;;
59300;SDS011;45073;52.740;6.784;2023-09-08T05:29:11;13.15;;;8.55;;
59300;SDS011;45073;52.740;6.784;2023-09-08T05:31:37;13.48;;;11.80;;
59300;SDS011;45073;52.740;6.784;2023-09-08T05:34:02;14.63;;;12.40;;
59300;SDS011;45073;52.740;6.784;2023-09-08T05:36:28;14.60;;;13.10;;
59300;SDS011;45073;52.740;6.784;2023-09-08T05:38:55;14.15;;;12.65;;
59300;SDS011;45073;52.740;6.784;2023-09-08T05:41:21;14.68;;;13.13;;
59300;SDS011;45073;52.740;6.784;2023-09-08T05:43:46;14.70;;;12.90;;
59300;SDS011;45073;52.740;6.784;2023-09-08T05:46:12;15.20;;;12.82;;
59300;SDS011;45073;52.740;6.784;2023-09-08T05:48:38;14.18;;;12.73;;
59300;SDS011;45073;52.740;6.784;2023-09-08T05:51:03;15.30;;;13.73;;
59300;SDS011;45073;52.740;6.784;2023-09-08T05:53:31;14.75;;;12.52;;
59300;SDS011;45073;52.740;6.784;2023-09-08T05:55:57;13.90;;;12.50;;
59300;SDS011;45073;52.740;6.784;2023-09-08T05:58:23;16.00;;;13.13;;
59300;SDS011;45073;52.740;6.784;2023-09-08T06:00:52;13.82;;;9.85;;
59300;SDS011;45073;52.740;6.784;2023-09-08T06:03:20;16.05;;;13.02;;
59300;SDS011;45073;52.740;6.784;2023-09-08T06:05:46;15.13;;;12.30;;
59300;SDS011;45073;52.740;6.784;2023-09-08T06:08:11;15.55;;;13.05;;
59300;SDS011;45073;52.740;6.784;2023-09-08T06:10:37;14.95;;;13.05;;
59300;SDS011;45073;52.740;6.784;2023-09-08T06:13:03;14.43;;;12.32;;
59300;SDS011;45073;52.740;6.784;2023-09-08T06:15:29;14.68;;;9.77;;
59300;SDS011;45073;52.740;6.784;2023-09-08T06:17:54;14.95;;;12.60;;
59300;SDS011;45073;52.740;6.784;2023-09-08T06:20:20;14.48;;;11.77;;
59300;SDS011;45073;52.740;6.784;2023-09-08T06:22:46;14.45;;;11.90;;
59300;SDS011;45073;52.740;6.784;2023-09-08T06:25:12;16.00;;;12.57;;
59300;SDS011;45073;52.740;6.784;2023-09-08T06:27:38;13.98;;;12.32;;
59300;SDS011;45073;52.740;6.784;2023-09-08T06:30:04;15.30;;;13.13;;
59300;SDS011;45073;52.740;6.784;2023-09-08T06:32:30;13.70;;;12.13;;
59300;SDS011;45073;52.740;6.784;2023-09-08T06:34:56;14.95;;;12.05;;
59300;SDS011;45073;52.740;6.784;2023-09-08T06:37:21;14.52;;;12.82;;
59300;SDS011;45073;52.740;6.784;2023-09-08T06:39:47;14.90;;;12.07;;
59300;SDS011;45073;52.740;6.784;2023-09-08T06:42:13;17.33;;;12.85;;
59300;SDS011;45073;52.740;6.784;2023-09-08T06:44:38;14.07;;;9.95;;
59300;SDS011;45073;52.740;6.784;2023-09-08T06:47:04;14.68;;;12.32;;
59300;SDS011;45073;52.740;6.784;2023-09-08T06:49:31;13.63;;;12.13;;
59300;SDS011;45073;52.740;6.784;2023-09-08T06:51:57;15.95;;;12.73;;
59300;SDS011;45073;52.740;6.784;2023-09-08T06:54:23;14.75;;;12.32;;
59300;SDS011;45073;52.740;6.784;2023-09-08T06:56:49;13.43;;;12.02;;
59300;SDS011;45073;52.740;6.784;2023-09-08T06:59:14;13.18;;;11.77;;
59300;SDS011;45073;52.740;6.784;2023-09-08T07:01:40;14.75;;;12.07;;
59300;SDS011;45073;52.740;6.784;2023-09-08T07:04:05;13.38;;;11.27;;
59300;SDS011;45073;52.740;6.784;2023-09-08T07:06:31;14.18;;;11.75;;
59300;SDS011;45073;52.740;6.784;2023-09-08T07:08:56;15.60;;;11.07;;
59300;SDS011;45073;52.740;6.784;2023-09-08T07:11:22;14.02;;;11.43;;
59300;SDS011;45073;52.740;6.784;2023-09-08T07:13:48;14.65;;;11.05;;
59300;SDS011;45073;52.740;6.784;2023-09-08T07:16:13;15.40;;;11.88;;
59300;SDS011;45073;52.740;6.784;2023-09-08T07:18:39;10.95;;;7.22;;
59300;SDS011;45073;52.740;6.784;2023-09-08T07:21:04;15.70;;;11.23;;
59300;SDS011;45073;52.740;6.784;2023-09-08T07:23:30;14.38;;;10.65;;
59300;SDS011;45073;52.740;6.784;2023-09-08T07:25:56;13.93;;;11.07;;
59300;SDS011;45073;52.740;6.784;2023-09-08T07:28:21;12.75;;;11.32;;
59300;SDS011;45073;52.740;6.784;2023-09-08T07:30:47;13.20;;;11.40;;
59300;SDS011;45073;52.740;6.784;2023-09-08T07:33:12;13.43;;;11.32;;
59300;SDS011;45073;52.740;6.784;2023-09-08T07:35:38;12.50;;;10.77;;
59300;SDS011;45073;52.740;6.784;2023-09-08T07:38:05;13.13;;;10.65;;
59300;SDS011;45073;52.740;6.784;2023-09-08T07:40:32;15.07;;;10.55;;
59300;SDS011;45073;52.740;6.784;2023-09-08T07:42:58;14.07;;;10.48;;
59300;SDS011;45073;52.740;6.784;2023-09-08T07:45:24;13.27;;;10.20;;
59300;SDS011;45073;52.740;6.784;2023-09-08T07:47:50;12.68;;;10.35;;
59300;SDS011;45073;52.740;6.784;2023-09-08T07:50:23;13.00;;;10.00;;
59300;SDS011;45073;52.740;6.784;2023-09-08T07:52:51;14.60;;;9.77;;
59300;SDS011;45073;52.740;6.784;2023-09-08T07:55:17;13.95;;;9.77;;
59300;SDS011;45073;52.740;6.784;2023-09-08T07:57:44;14.02;;;9.50;;
59300;SDS011;45073;52.740;6.784;2023-09-08T08:00:14;11.20;;;9.27;;
59300;SDS011;45073;52.740;6.784;2023-09-08T08:02:47;11.85;;;9.63;;
59300;SDS011;45073;52.740;6.784;2023-09-08T08:05:14;11.45;;;9.18;;
59300;SDS011;45073;52.740;6.784;2023-09-08T08:07:40;11.32;;;9.88;;
59300;SDS011;45073;52.740;6.784;2023-09-08T08:10:07;11.98;;;9.27;;
59300;SDS011;45073;52.740;6.784;2023-09-08T08:12:34;12.98;;;9.18;;
59300;SDS011;45073;52.740;6.784;2023-09-08T08:14:59;12.77;;;8.68;;
59300;SDS011;45073;52.740;6.784;2023-09-08T08:17:25;13.98;;;9.50;;
59300;SDS011;45073;52.740;6.784;2023-09-08T08:19:52;10.18;;;8.52;;
59300;SDS011;45073;52.740;6.784;2023-09-08T08:22:19;11.00;;;8.70;;
59300;SDS011;45073;52.740;6.784;2023-09-08T08:24:45;12.60;;;8.70;;
59300;SDS011;45073;52.740;6.784;2023-09-08T08:27:11;11.82;;;8.65;;
59300;SDS011;45073;52.740;6.784;2023-09-08T08:29:36;12.13;;;8.95;;
59300;SDS011;45073;52.740;6.784;2023-09-08T08:32:02;11.48;;;8.35;;
59300;SDS011;45073;52.740;6.784;2023-09-08T08:34:28;12.23;;;8.43;;
59300;SDS011;45073;52.740;6.784;2023-09-08T08:36:53;11.23;;;7.70;;
59300;SDS011;45073;52.740;6.784;2023-09-08T08:39:19;11.60;;;8.05;;
59300;SDS011;45073;52.740;6.784;2023-09-08T08:41:45;12.93;;;7.95;;
59300;SDS011;45073;52.740;6.784;2023-09-08T08:44:10;12.10;;;8.05;;
59300;SDS011;45073;52.740;6.784;2023-09-08T08:46:36;11.90;;;7.28;;
59300;SDS011;45073;52.740;6.784;2023-09-08T08:49:03;12.35;;;7.82;;
59300;SDS011;45073;52.740;6.784;2023-09-08T08:51:32;11.18;;;8.25;;
59300;SDS011;45073;52.740;6.784;2023-09-08T08:54:00;11.43;;;8.00;;
59300;SDS011;45073;52.740;6.784;2023-09-08T08:56:29;16.95;;;8.27;;
59300;SDS011;45073;52.740;6.784;2023-09-08T08:58:56;12.38;;;7.57;;
59300;SDS011;45073;52.740;6.784;2023-09-08T09:01:23;9.85;;;7.15;;
59300;SDS011;45073;52.740;6.784;2023-09-08T09:03:51;11.30;;;7.30;;
59300;SDS011;45073;52.740;6.784;2023-09-08T09:06:17;10.45;;;7.30;;
59300;SDS011;45073;52.740;6.784;2023-09-08T09:08:43;9.52;;;7.03;;
59300;SDS011;45073;52.740;6.784;2023-09-08T09:11:10;10.68;;;7.25;;
59300;SDS011;45073;52.740;6.784;2023-09-08T09:13:36;10.32;;;7.35;;
59300;SDS011;45073;52.740;6.784;2023-09-08T09:16:02;12.88;;;7.57;;
59300;SDS011;45073;52.740;6.784;2023-09-08T09:18:29;11.20;;;6.70;;
59300;SDS011;45073;52.740;6.784;2023-09-08T09:20:58;11.35;;;6.68;;
59300;SDS011;45073;52.740;6.784;2023-09-08T09:23:32;10.40;;;6.65;;
59300;SDS011;45073;52.740;6.784;2023-09-08T09:26:00;12.63;;;6.35;;
59300;SDS011;45073;52.740;6.784;2023-09-08T09:28:29;11.07;;;7.07;;
59300;SDS011;45073;52.740;6.784;2023-09-08T09:30:54;12.73;;;6.22;;
59300;SDS011;45073;52.740;6.784;2023-09-08T09:33:21;10.07;;;6.25;;
59300;SDS011;45073;52.740;6.784;2023-09-08T09:35:48;10.15;;;6.30;;
59300;SDS011;45073;52.740;6.784;2023-09-08T09:38:15;8.43;;;5.50;;
59300;SDS011;45073;52.740;6.784;2023-09-08T09:40:43;9.82;;;5.72;;
59300;SDS011;45073;52.740;6.784;2023-09-08T09:43:10;10.73;;;6.20;;
59300;SDS011;45073;52.740;6.784;2023-09-08T09:45:39;9.98;;;5.45;;
59300;SDS011;45073;52.740;6.784;2023-09-08T09:48:06;10.65;;;5.82;;
59300;SDS011;45073;52.740;6.784;2023-09-08T09:53:00;11.88;;;5.68;;
59300;SDS011;45073;52.740;6.784;2023-09-08T09:55:28;11.25;;;6.03;;
59300;SDS011;45073;52.740;6.784;2023-09-08T09:57:56;12.27;;;5.97;;
59300;SDS011;45073;52.740;6.784;2023-09-08T10:00:29;9.82;;;5.50;;
59300;SDS011;45073;52.740;6.784;2023-09-08T10:02:55;8.77;;;5.35;;
59300;SDS011;45073;52.740;6.784;2023-09-08T10:05:21;9.50;;;5.63;;
59300;SDS011;45073;52.740;6.784;2023-09-08T10:07:51;9.13;;;4.95;;
59300;SDS011;45073;52.740;6.784;2023-09-08T10:10:18;9.57;;;5.43;;
59300;SDS011;45073;52.740;6.784;2023-09-08T10:12:46;9.82;;;5.55;;
59300;SDS011;45073;52.740;6.784;2023-09-08T10:15:21;9.18;;;5.35;;
59300;SDS011;45073;52.740;6.784;2023-09-08T10:17:54;8.15;;;5.00;;
59300;SDS011;45073;52.740;6.784;2023-09-08T10:20:22;10.45;;;5.10;;
59300;SDS011;45073;52.740;6.784;2023-09-08T10:22:50;9.18;;;5.25;;
59300;SDS011;45073;52.740;6.784;2023-09-08T10:25:19;10.18;;;5.55;;
59300;SDS011;45073;52.740;6.784;2023-09-08T10:27:46;9.98;;;5.43;;
59300;SDS011;45073;52.740;6.784;2023-09-08T10:30:13;8.18;;;4.85;;
59300;SDS011;45073;52.740;6.784;2023-09-08T10:32:41;9.05;;;5.13;;
59300;SDS011;45073;52.740;6.784;2023-09-08T10:35:08;8.93;;;5.32;;
59300;SDS011;45073;52.740;6.784;2023-09-08T10:37:34;8.55;;;5.28;;
59300;SDS011;45073;52.740;6.784;2023-09-08T10:42:45;9.60;;;4.88;;
59300;SDS011;45073;52.740;6.784;2023-09-08T10:45:15;8.02;;;4.97;;
59300;SDS011;45073;52.740;6.784;2023-09-08T10:50:17;10.48;;;4.97;;
59300;SDS011;45073;52.740;6.784;2023-09-08T10:52:44;9.93;;;4.78;;
59300;SDS011;45073;52.740;6.784;2023-09-08T10:55:11;8.65;;;4.57;;
59300;SDS011;45073;52.740;6.784;2023-09-08T10:57:38;7.88;;;5.13;;
59300;SDS011;45073;52.740;6.784;2023-09-08T11:00:09;12.10;;;4.90;;
59300;SDS011;45073;52.740;6.784;2023-09-08T11:02:38;11.60;;;5.28;;
59300;SDS011;45073;52.740;6.784;2023-09-08T11:05:10;9.35;;;4.80;;
59300;SDS011;45073;52.740;6.784;2023-09-08T11:07:38;9.10;;;4.68;;
59300;SDS011;45073;52.740;6.784;2023-09-08T11:10:06;9.88;;;5.15;;
59300;SDS011;45073;52.740;6.784;2023-09-08T11:12:32;11.38;;;4.97;;
59300;SDS011;45073;52.740;6.784;2023-09-08T11:14:58;11.07;;;4.82;;
59300;SDS011;45073;52.740;6.784;2023-09-08T11:17:34;9.93;;;5.13;;
59300;SDS011;45073;52.740;6.784;2023-09-08T11:20:04;9.05;;;4.93;;
59300;SDS011;45073;52.740;6.784;2023-09-08T11:22:34;9.95;;;4.70;;
59300;SDS011;45073;52.740;6.784;2023-09-08T11:25:00;8.13;;;4.60;;
59300;SDS011;45073;52.740;6.784;2023-09-08T11:27:29;10.13;;;5.10;;
59300;SDS011;45073;52.740;6.784;2023-09-08T11:29:55;9.80;;;5.38;;
59300;SDS011;45073;52.740;6.784;2023-09-08T11:32:22;8.93;;;5.10;;
59300;SDS011;45073;52.740;6.784;2023-09-08T11:34:48;9.25;;;4.95;;
59300;SDS011;45073;52.740;6.784;2023-09-08T11:37:14;9.32;;;4.97;;
59300;SDS011;45073;52.740;6.784;2023-09-08T11:39:43;8.77;;;4.63;;
59300;SDS011;45073;52.740;6.784;2023-09-08T11:42:12;10.00;;;5.10;;
59300;SDS011;45073;52.740;6.784;2023-09-08T11:44:39;8.73;;;5.00;;
59300;SDS011;45073;52.740;6.784;2023-09-08T11:47:09;8.82;;;4.90;;
59300;SDS011;45073;52.740;6.784;2023-09-08T11:49:41;8.95;;;4.72;;
59300;SDS011;45073;52.740;6.784;2023-09-08T11:52:09;9.77;;;5.10;;
59300;SDS011;45073;52.740;6.784;2023-09-08T11:54:35;8.75;;;5.10;;
59300;SDS011;45073;52.740;6.784;2023-09-08T11:57:03;10.70;;;5.10;;
59300;SDS011;45073;52.740;6.784;2023-09-08T11:59:33;8.13;;;4.28;;
59300;SDS011;45073;52.740;6.784;2023-09-08T12:02:00;10.00;;;4.65;;
59300;SDS011;45073;52.740;6.784;2023-09-08T12:04:26;8.80;;;4.60;;
59300;SDS011;45073;52.740;6.784;2023-09-08T12:06:52;10.60;;;4.63;;
59300;SDS011;45073;52.740;6.784;2023-09-08T12:09:20;9.85;;;4.80;;
59300;SDS011;45073;52.740;6.784;2023-09-08T12:11:46;9.88;;;5.00;;
59300;SDS011;45073;52.740;6.784;2023-09-08T12:14:13;8.95;;;4.90;;
59300;SDS011;45073;52.740;6.784;2023-09-08T12:16:40;8.90;;;4.50;;
59300;SDS011;45073;52.740;6.784;2023-09-08T12:21:59;9.27;;;4.43;;
59300;SDS011;45073;52.740;6.784;2023-09-08T12:24:47;8.98;;;4.72;;
59300;SDS011;45073;52.740;6.784;2023-09-08T12:27:14;8.43;;;4.20;;
59300;SDS011;45073;52.740;6.784;2023-09-08T12:29:41;9.77;;;4.70;;
59300;SDS011;45073;52.740;6.784;2023-09-08T12:32:34;9.45;;;4.10;;
59300;SDS011;45073;52.740;6.784;2023-09-08T12:35:02;7.47;;;4.10;;
59300;SDS011;45073;52.740;6.784;2023-09-08T12:37:29;9.05;;;4.15;;
59300;SDS011;45073;52.740;6.784;2023-09-08T12:39:57;10.13;;;4.38;;
59300;SDS011;45073;52.740;6.784;2023-09-08T12:42:25;7.43;;;3.90;;
59300;SDS011;45073;52.740;6.784;2023-09-08T12:44:54;8.38;;;4.10;;
59300;SDS011;45073;52.740;6.784;2023-09-08T12:47:20;7.53;;;4.22;;
59300;SDS011;45073;52.740;6.784;2023-09-08T12:49:45;9.00;;;4.45;;
59300;SDS011;45073;52.740;6.784;2023-09-08T12:52:11;8.10;;;4.10;;
59300;SDS011;45073;52.740;6.784;2023-09-08T12:54:37;8.57;;;4.40;;
59300;SDS011;45073;52.740;6.784;2023-09-08T12:57:03;7.50;;;3.83;;
59300;SDS011;45073;52.740;6.784;2023-09-08T12:59:28;8.38;;;3.90;;
59300;SDS011;45073;52.740;6.784;2023-09-08T13:01:54;8.75;;;4.25;;
59300;SDS011;45073;52.740;6.784;2023-09-08T13:04:20;8.77;;;4.10;;
59300;SDS011;45073;52.740;6.784;2023-09-08T13:06:47;7.70;;;4.20;;
59300;SDS011;45073;52.740;6.784;2023-09-08T13:09:12;9.23;;;4.10;;
59300;SDS011;45073;52.740;6.784;2023-09-08T13:11:38;7.25;;;3.88;;
59300;SDS011;45073;52.740;6.784;2023-09-08T13:14:04;7.38;;;3.75;;
59300;SDS011;45073;52.740;6.784;2023-09-08T13:16:30;7.78;;;3.90;;
59300;SDS011;45073;52.740;6.784;2023-09-08T13:18:55;7.72;;;3.85;;
59300;SDS011;45073;52.740;6.784;2023-09-08T13:21:21;10.02;;;4.18;;
59300;SDS011;45073;52.740;6.784;2023-09-08T13:23:46;10.05;;;4.35;;
59300;SDS011;45073;52.740;6.784;2023-09-08T13:26:12;7.22;;;3.85;;
59300;SDS011;45073;52.740;6.784;2023-09-08T13:28:37;13.95;;;4.72;;
59300;SDS011;45073;52.740;6.784;2023-09-08T13:31:03;9.38;;;4.15;;
59300;SDS011;45073;52.740;6.784;2023-09-08T13:33:29;7.95;;;3.83;;
59300;SDS011;45073;52.740;6.784;2023-09-08T13:35:54;7.82;;;3.92;;
59300;SDS011;45073;52.740;6.784;2023-09-08T13:38:20;8.73;;;4.13;;
59300;SDS011;45073;52.740;6.784;2023-09-08T13:40:46;8.60;;;3.95;;
59300;SDS011;45073;52.740;6.784;2023-09-08T13:43:12;8.00;;;4.00;;
59300;SDS011;45073;52.740;6.784;2023-09-08T13:45:37;8.75;;;4.07;;
59300;SDS011;45073;52.740;6.784;2023-09-08T13:48:03;8.68;;;3.80;;
59300;SDS011;45073;52.740;6.784;2023-09-08T13:50:31;9.38;;;4.20;;
59300;SDS011;45073;52.740;6.784;2023-09-08T13:52:56;8.02;;;3.88;;
59300;SDS011;45073;52.740;6.784;2023-09-08T13:55:22;10.15;;;3.92;;
59300;SDS011;45073;52.740;6.784;2023-09-08T13:57:49;7.35;;;3.60;;
59300;SDS011;45073;52.740;6.784;2023-09-08T14:00:15;7.50;;;4.13;;
59300;SDS011;45073;52.740;6.784;2023-09-08T14:02:41;10.50;;;3.80;;
59300;SDS011;45073;52.740;6.784;2023-09-08T14:05:07;7.63;;;4.55;;
59300;SDS011;45073;52.740;6.784;2023-09-08T14:07:33;8.07;;;3.45;;
59300;SDS011;45073;52.740;6.784;2023-09-08T14:09:58;7.75;;;3.58;;
59300;SDS011;45073;52.740;6.784;2023-09-08T14:12:24;9.63;;;4.05;;
59300;SDS011;45073;52.740;6.784;2023-09-08T14:14:49;7.82;;;4.07;;
59300;SDS011;45073;52.740;6.784;2023-09-08T14:17:15;8.10;;;3.75;;
59300;SDS011;45073;52.740;6.784;2023-09-08T14:19:41;8.95;;;4.35;;
59300;SDS011;45073;52.740;6.784;2023-09-08T14:22:06;8.55;;;3.95;;
59300;SDS011;45073;52.740;6.784;2023-09-08T14:24:32;7.63;;;4.28;;
59300;SDS011;45073;52.740;6.784;2023-09-08T14:26:57;7.40;;;3.58;;
59300;SDS011;45073;52.740;6.784;2023-09-08T14:29:23;9.05;;;4.18;;
59300;SDS011;45073;52.740;6.784;2023-09-08T14:31:49;7.75;;;3.45;;
59300;SDS011;45073;52.740;6.784;2023-09-08T14:34:14;9.45;;;3.90;;
59300;SDS011;45073;52.740;6.784;2023-09-08T14:36:40;27.60;;;5.75;;
59300;SDS011;45073;52.740;6.784;2023-09-08T14:39:05;8.45;;;3.80;;
59300;SDS011;45073;52.740;6.784;2023-09-08T14:41:31;7.60;;;3.50;;